createdAt,value
2022-11-19T00:01:36.217Z,7.30
2022-11-19T00:04:08.255Z,7.30
2022-11-19T00:06:35.219Z,7.30
2022-11-19T00:09:02.516Z,7.30
2022-11-19T00:11:51.985Z,7.30
2022-11-19T00:14:21.234Z,7.30
2022-11-19T00:16:53.119Z,7.20
2022-11-19T00:19:20.586Z,7.20
2022-11-19T00:21:50.383Z,7.20
2022-11-19T00:24:19.603Z,7.10
2022-11-19T00:26:49.403Z,7.20
2022-11-19T00:29:18.202Z,7.10
2022-11-19T00:31:45.388Z,7.10
2022-11-19T00:34:12.474Z,7.10
2022-11-19T00:36:39.592Z,7.10
2022-11-19T00:39:11.512Z,7.20
2022-11-19T00:41:38.630Z,7.20
2022-11-19T00:44:07.769Z,7.20
2022-11-19T00:46:34.720Z,7.30
2022-11-19T00:49:04.329Z,7.30
2022-11-19T00:51:31.713Z,7.30
2022-11-19T00:54:00.882Z,7.30
2022-11-19T00:56:28.035Z,7.20
2022-11-19T00:58:57.942Z,7.20
2022-11-19T01:01:26.130Z,7.10
2022-11-19T01:03:55.708Z,7.10
2022-11-19T01:06:28.290Z,7.10
2022-11-19T01:08:55.307Z,7.10
2022-11-19T01:11:24.958Z,7.10
2022-11-19T01:13:54.298Z,7.20
2022-11-19T01:16:27.380Z,7.20
2022-11-19T01:18:57.207Z,7.20
2022-11-19T01:21:26.905Z,7.20
2022-11-19T01:23:54.043Z,7.20
2022-11-19T01:26:21.388Z,7.20
2022-11-19T01:28:48.257Z,7.10
2022-11-19T01:31:24.438Z,7.10
2022-11-19T01:33:54.807Z,7.10
2022-11-19T01:36:23.188Z,7.10
2022-11-19T01:38:54.283Z,7.10
2022-11-19T01:41:26.744Z,7.20
2022-11-19T01:44:00.342Z,7.20
2022-11-19T01:46:32.994Z,7.20
2022-11-19T01:49:03.048Z,7.20
2022-11-19T01:51:32.239Z,7.20
2022-11-19T01:54:08.009Z,7.10
2022-11-19T01:56:36.146Z,7.10
2022-11-19T01:59:09.340Z,7.10
2022-11-19T02:01:36.398Z,7.10
2022-11-19T02:04:04.773Z,7.20
2022-11-19T02:06:32.281Z,7.20
2022-11-19T02:09:01.657Z,7.20
2022-11-19T02:11:43.157Z,7.20
2022-11-19T02:14:12.726Z,7.20
2022-11-19T02:17:06.057Z,7.20
2022-11-19T02:20:05.824Z,7.20
2022-11-19T02:22:53.439Z,7.20
2022-11-19T02:25:39.275Z,7.20
2022-11-19T02:28:18.294Z,7.30
2022-11-19T02:31:06.704Z,7.30
2022-11-19T02:33:50.639Z,7.30
2022-11-19T02:36:23.402Z,7.30
2022-11-19T02:38:55.913Z,7.30
2022-11-19T02:41:39.828Z,7.30
2022-11-19T02:44:28.523Z,7.30
2022-11-19T02:46:57.338Z,7.30
2022-11-19T02:49:28.793Z,7.30
2022-11-19T02:52:00.925Z,7.30
2022-11-19T02:54:28.660Z,7.20
2022-11-19T02:57:02.829Z,7.30
2022-11-19T03:00:07.636Z,7.20
2022-11-19T03:03:01.327Z,7.20
2022-11-19T03:05:33.573Z,7.20
2022-11-19T03:08:03.199Z,7.30
2022-11-19T03:10:46.879Z,7.30
2022-11-19T03:13:40.680Z,7.40
2022-11-19T03:16:35.603Z,7.40
2022-11-19T03:19:33.876Z,7.40
2022-11-19T03:22:44.095Z,7.40
2022-11-19T03:25:25.330Z,7.40
2022-11-19T03:27:57.311Z,7.40
2022-11-19T03:30:29.308Z,7.40
2022-11-19T03:33:07.609Z,7.40
2022-11-19T03:35:46.513Z,7.50
2022-11-19T03:38:19.001Z,7.50
2022-11-19T03:40:50.719Z,7.50
2022-11-19T03:43:26.522Z,7.40
2022-11-19T03:45:58.332Z,7.30
2022-11-19T03:48:30.055Z,7.20
2022-11-19T03:51:07.122Z,7.30
2022-11-19T03:53:34.130Z,7.30
2022-11-19T03:56:04.256Z,7.30
2022-11-19T03:58:37.204Z,7.30
2022-11-19T04:01:06.883Z,7.20
2022-11-19T04:03:39.600Z,7.20
2022-11-19T04:06:07.344Z,7.30
2022-11-19T04:08:34.954Z,7.20
2022-11-19T04:13:27.875Z,7.20
2022-11-19T04:15:57.708Z,7.20
2022-11-19T04:18:24.578Z,7.20
2022-11-19T04:20:53.751Z,7.20
2022-11-19T04:23:23.198Z,7.20
2022-11-19T04:25:50.094Z,7.30
2022-11-19T04:28:21.586Z,7.30
2022-11-19T04:30:48.483Z,7.40
2022-11-19T04:33:15.363Z,7.40
2022-11-19T04:35:45.303Z,7.40
2022-11-19T04:38:12.274Z,7.40
2022-11-19T04:40:39.402Z,7.50
2022-11-19T04:43:08.339Z,7.40
2022-11-19T04:45:35.194Z,7.50
2022-11-19T04:48:06.858Z,7.40
2022-11-19T04:50:33.856Z,7.40
2022-11-19T04:53:03.231Z,7.40
2022-11-19T04:55:32.383Z,7.40
2022-11-19T04:58:01.462Z,7.40
2022-11-19T05:00:29.628Z,7.40
2022-11-19T05:02:56.575Z,7.40
2022-11-19T05:05:25.627Z,7.40
2022-11-19T05:07:52.543Z,7.40
2022-11-19T05:10:21.945Z,7.50
2022-11-19T05:12:48.982Z,7.40
2022-11-19T05:15:21.154Z,7.40
2022-11-19T05:17:50.524Z,7.40
2022-11-19T05:20:22.313Z,7.40
2022-11-19T05:22:49.270Z,7.40
2022-11-19T05:25:16.212Z,7.40
2022-11-19T05:27:43.071Z,7.40
2022-11-19T05:30:11.232Z,7.40
2022-11-19T05:32:40.698Z,7.40
2022-11-19T05:35:08.532Z,7.40
2022-11-19T05:37:35.448Z,7.40
2022-11-19T05:40:10.730Z,7.40
2022-11-19T05:42:37.691Z,7.40
2022-11-19T05:45:07.471Z,7.30
2022-11-19T05:47:34.438Z,7.30
2022-11-19T05:50:04.791Z,7.30
2022-11-19T05:52:34.347Z,7.30
2022-11-19T05:55:01.702Z,7.20
2022-11-19T05:57:31.062Z,7.20
2022-11-19T06:00:02.748Z,7.30
2022-11-19T06:02:39.393Z,7.20
2022-11-19T06:05:09.006Z,7.20
2022-11-19T06:07:36.000Z,7.30
2022-11-19T06:10:05.233Z,7.20
2022-11-19T06:12:32.171Z,7.20
2022-11-19T06:15:02.163Z,7.10
2022-11-19T06:17:29.530Z,7.10
2022-11-19T06:19:58.723Z,7.10
2022-11-19T06:22:28.003Z,7.10
2022-11-19T06:24:57.418Z,7.10
2022-11-19T06:27:24.435Z,7.10
2022-11-19T06:29:56.237Z,7.00
2022-11-19T06:32:25.736Z,7.00
2022-11-19T06:34:52.678Z,6.90
2022-11-19T06:37:19.653Z,6.80
2022-11-19T06:39:49.107Z,6.80
2022-11-19T06:42:34.729Z,6.80
2022-11-19T06:45:13.891Z,6.80
2022-11-19T06:47:44.125Z,6.80
2022-11-19T06:50:14.043Z,6.80
2022-11-19T06:52:41.017Z,6.80
2022-11-19T06:55:10.524Z,6.90
2022-11-19T06:57:37.568Z,7.00
2022-11-19T07:00:05.256Z,7.10
2022-11-19T07:02:32.296Z,7.10
2022-11-19T07:04:59.226Z,7.10
2022-11-19T07:07:30.970Z,7.20
2022-11-19T07:10:00.386Z,7.30
2022-11-19T07:12:29.767Z,7.30
2022-11-19T07:15:04.001Z,7.40
2022-11-19T07:17:31.663Z,7.40
2022-11-19T07:19:58.630Z,7.50
2022-11-19T07:22:27.990Z,7.60
2022-11-19T07:24:54.875Z,7.60
2022-11-19T07:27:23.862Z,7.50
2022-11-19T07:29:50.725Z,7.50
2022-11-19T07:32:23.178Z,7.60
2022-11-19T07:34:50.223Z,7.60
2022-11-19T07:37:17.178Z,7.60
2022-11-19T07:39:46.872Z,7.70
2022-11-19T07:42:32.677Z,7.80
2022-11-19T07:45:08.799Z,7.80
2022-11-19T07:47:36.054Z,7.90
2022-11-19T07:50:03.231Z,7.90
2022-11-19T07:52:32.712Z,8.00
2022-11-19T07:54:59.682Z,8.20
2022-11-19T07:57:32.437Z,8.20
2022-11-19T07:59:59.502Z,8.20
2022-11-19T08:02:28.628Z,8.20
2022-11-19T08:04:57.786Z,8.30
2022-11-19T08:07:24.655Z,8.40
2022-11-19T08:09:53.724Z,8.50
2022-11-19T08:12:20.669Z,8.50
2022-11-19T08:14:50.047Z,8.50
2022-11-19T08:17:38.034Z,8.50
2022-11-19T08:20:05.431Z,8.60
2022-11-19T08:22:32.507Z,8.60
2022-11-19T08:25:04.367Z,8.60
2022-11-19T08:27:32.036Z,8.70
2022-11-19T08:30:01.512Z,8.70
2022-11-19T08:32:28.413Z,8.70
2022-11-19T08:34:57.719Z,8.70
2022-11-19T08:37:25.761Z,8.80
2022-11-19T08:39:55.239Z,8.80
2022-11-19T08:42:40.565Z,8.80
2022-11-19T08:45:08.060Z,8.80
2022-11-19T08:47:39.891Z,8.80
2022-11-19T08:50:07.286Z,8.90
2022-11-19T08:52:34.377Z,9.00
2022-11-19T08:55:06.002Z,8.90
2022-11-19T08:57:33.008Z,9.00
2022-11-19T09:00:06.186Z,9.20
2022-11-19T09:02:36.244Z,9.20
2022-11-19T09:05:05.644Z,9.20
2022-11-19T09:07:34.860Z,9.20
2022-11-19T09:10:01.785Z,9.20
2022-11-19T09:12:31.772Z,9.10
2022-11-19T09:15:00.993Z,9.00
2022-11-19T09:17:27.964Z,9.10
2022-11-19T09:19:55.195Z,9.10
2022-11-19T09:22:24.474Z,9.10
2022-11-19T09:24:53.734Z,9.10
2022-11-19T09:27:20.671Z,9.20
2022-11-19T09:29:49.844Z,9.40
2022-11-19T09:32:21.143Z,9.50
2022-11-19T09:34:52.013Z,9.70
2022-11-19T09:37:18.953Z,9.80
2022-11-19T09:39:45.946Z,9.80
2022-11-19T09:42:30.935Z,9.70
2022-11-19T09:45:16.674Z,9.70
2022-11-19T09:48:02.574Z,9.60
2022-11-19T09:50:49.034Z,9.60
2022-11-19T09:53:22.705Z,9.60
2022-11-19T09:55:58.973Z,9.50
2022-11-19T09:58:35.043Z,9.60
2022-11-19T10:01:02.367Z,9.70
2022-11-19T10:03:33.468Z,9.70
2022-11-19T10:06:16.288Z,10.00
2022-11-19T10:09:38.194Z,10.00
2022-11-19T10:13:09.974Z,10.20
2022-11-19T10:16:40.884Z,10.40
2022-11-19T10:19:29.251Z,10.40
2022-11-19T10:22:20.638Z,10.50
2022-11-19T10:25:29.022Z,10.50
2022-11-19T10:28:29.291Z,10.60
2022-11-19T10:31:44.297Z,10.60
2022-11-19T10:34:32.192Z,10.60
2022-11-19T10:40:15.889Z,10.20
2022-11-19T10:42:52.256Z,10.20
2022-11-19T10:45:23.558Z,10.40
2022-11-19T10:48:21.820Z,10.80
2022-11-19T10:50:52.457Z,11.30
2022-11-19T10:53:37.061Z,11.80
2022-11-19T10:56:09.999Z,12.00
2022-11-19T10:59:12.128Z,12.00
2022-11-19T11:02:28.875Z,12.10
2022-11-19T11:05:15.417Z,12.10
2022-11-19T11:07:50.396Z,12.10
2022-11-19T11:10:32.329Z,12.20
2022-11-19T11:13:25.958Z,12.10
2022-11-19T11:15:54.301Z,11.90
2022-11-19T11:18:29.276Z,11.50
2022-11-19T11:20:57.225Z,11.20
2022-11-19T11:23:31.354Z,11.00
2022-11-19T11:26:01.481Z,10.80
2022-11-19T11:28:29.745Z,10.60
2022-11-19T11:31:07.781Z,10.40
2022-11-19T11:33:41.374Z,10.40
2022-11-19T11:36:16.088Z,10.20
2022-11-19T11:38:47.965Z,10.20
2022-11-19T11:44:25.069Z,10.50
2022-11-19T11:47:05.078Z,10.60
2022-11-19T11:49:35.164Z,10.70
2022-11-19T11:52:25.336Z,10.80
2022-11-19T11:55:02.423Z,10.90
2022-11-19T11:57:30.594Z,11.10
2022-11-19T11:59:57.993Z,11.20
2022-11-19T12:02:34.096Z,11.30
2022-11-19T12:05:24.803Z,11.30
2022-11-19T12:08:46.271Z,11.30
2022-11-19T12:12:08.769Z,11.50
2022-11-19T12:15:08.435Z,11.60
2022-11-19T12:18:35.114Z,11.40
2022-11-19T12:21:34.684Z,11.40
2022-11-19T12:24:30.030Z,11.10
2022-11-19T12:27:12.203Z,11.00
2022-11-19T12:29:50.126Z,11.00
2022-11-19T12:32:35.917Z,11.00
2022-11-19T12:35:33.945Z,11.00
2022-11-19T12:38:22.604Z,11.10
2022-11-19T12:41:11.176Z,11.10
2022-11-19T12:44:17.893Z,11.00
2022-11-19T12:46:56.069Z,11.00
2022-11-19T12:49:44.829Z,10.90
2022-11-19T12:52:22.822Z,10.80
2022-11-19T12:55:02.025Z,10.50
2022-11-19T12:57:41.002Z,10.40
2022-11-19T13:00:23.957Z,10.40
2022-11-19T13:03:10.466Z,10.30
2022-11-19T13:06:25.742Z,10.30
2022-11-19T13:09:16.957Z,10.30
2022-11-19T13:11:50.182Z,10.40
2022-11-19T13:14:51.938Z,10.50
2022-11-19T13:17:31.385Z,10.50
2022-11-19T13:20:04.703Z,10.40
2022-11-19T13:22:46.142Z,10.30
2022-11-19T13:25:20.055Z,10.20
2022-11-19T13:27:50.654Z,10.20
2022-11-19T13:30:20.814Z,10.20
2022-11-19T13:33:27.070Z,10.30
2022-11-19T13:36:09.816Z,10.40
2022-11-19T13:38:52.764Z,10.50
2022-11-19T13:41:34.309Z,10.50
2022-11-19T13:44:22.828Z,10.60
2022-11-19T13:47:01.931Z,10.50
2022-11-19T13:49:41.090Z,10.60
2022-11-19T13:52:16.526Z,10.60
2022-11-19T13:54:49.001Z,10.60
2022-11-19T13:57:45.456Z,10.60
2022-11-19T14:00:26.056Z,10.70
2022-11-19T14:03:07.993Z,10.80
2022-11-19T14:06:05.171Z,10.80
2022-11-19T14:08:56.312Z,11.00
2022-11-19T14:11:50.527Z,11.10
2022-11-19T14:14:58.010Z,11.40
2022-11-19T14:18:18.544Z,11.20
2022-11-19T14:21:09.303Z,11.30
2022-11-19T14:24:09.533Z,11.10
2022-11-19T14:26:42.909Z,10.90
2022-11-19T14:29:19.318Z,10.80
2022-11-19T14:32:08.286Z,10.80
2022-11-19T14:34:40.610Z,10.80
2022-11-19T14:37:22.074Z,10.90
2022-11-19T14:40:00.515Z,10.80
2022-11-19T14:42:29.784Z,10.70
2022-11-19T14:45:05.716Z,10.70
2022-11-19T14:48:04.768Z,10.60
2022-11-19T14:50:41.621Z,10.50
2022-11-19T14:53:22.299Z,10.50
2022-11-19T14:55:53.677Z,10.30
2022-11-19T14:58:38.363Z,10.20
2022-11-19T15:01:06.912Z,10.00
2022-11-19T15:03:38.046Z,10.00
2022-11-19T15:06:07.838Z,9.90
2022-11-19T15:09:13.220Z,9.90
2022-11-19T15:12:13.850Z,9.80
2022-11-19T15:15:01.953Z,9.60
2022-11-19T15:17:29.720Z,9.40
2022-11-19T15:20:19.609Z,9.10
2022-11-19T15:23:19.587Z,8.90
2022-11-19T15:25:58.432Z,8.70
2022-11-19T15:28:47.685Z,8.50
2022-11-19T15:31:48.168Z,8.40
2022-11-19T15:34:23.518Z,8.20
2022-11-19T15:37:00.868Z,8.10
2022-11-19T15:39:47.411Z,7.90
2022-11-19T15:42:23.601Z,7.80
2022-11-19T15:44:55.144Z,7.70
2022-11-19T15:47:31.567Z,7.60
2022-11-19T15:49:59.234Z,7.60
2022-11-19T15:52:32.614Z,7.50
2022-11-19T15:58:20.412Z,7.40
2022-11-19T16:00:50.362Z,7.30
2022-11-19T16:03:17.926Z,7.20
2022-11-19T16:06:04.428Z,7.10
2022-11-19T16:08:32.151Z,7.00
2022-11-19T16:11:20.602Z,6.90
2022-11-19T16:14:13.135Z,6.90
2022-11-19T16:16:58.989Z,7.00
2022-11-19T16:19:26.056Z,7.10
2022-11-19T16:22:21.877Z,7.20
2022-11-19T16:25:03.800Z,7.20
2022-11-19T16:27:31.851Z,7.40
2022-11-19T16:29:59.261Z,7.40
2022-11-19T16:32:27.583Z,7.40
2022-11-19T16:35:19.452Z,7.50
2022-11-19T16:37:47.891Z,7.40
2022-11-19T16:40:16.777Z,7.50
2022-11-19T16:43:12.683Z,7.50
2022-11-19T16:45:48.078Z,7.50
2022-11-19T16:48:50.593Z,7.40
2022-11-19T16:51:40.115Z,7.40
2022-11-19T16:54:10.942Z,7.40
2022-11-19T16:56:47.766Z,7.40
2022-11-19T16:59:24.004Z,7.40
2022-11-19T17:02:34.906Z,7.40
2022-11-19T17:05:21.201Z,7.30
2022-11-19T17:08:03.758Z,7.20
2022-11-19T17:10:34.731Z,7.20
2022-11-19T17:13:06.961Z,7.10
2022-11-19T17:15:45.032Z,7.10
2022-11-19T17:18:29.443Z,7.00
2022-11-19T17:21:08.797Z,6.90
2022-11-19T17:23:48.215Z,6.80
2022-11-19T17:26:26.594Z,6.80
2022-11-19T17:29:07.381Z,6.80
2022-11-19T17:31:34.381Z,6.80
2022-11-19T17:34:19.278Z,6.90
2022-11-19T17:36:49.169Z,7.00
2022-11-19T17:39:20.038Z,7.10
2022-11-19T17:42:13.001Z,7.20
2022-11-19T17:44:40.787Z,7.30
2022-11-19T17:47:22.712Z,7.30
2022-11-19T17:49:51.543Z,7.40
2022-11-19T17:52:22.509Z,7.50
2022-11-19T17:54:53.412Z,7.50
2022-11-19T17:57:22.768Z,7.60
2022-11-19T17:59:57.099Z,7.50
2022-11-19T18:02:24.149Z,7.60
2022-11-19T18:04:51.981Z,7.60
2022-11-19T18:07:19.074Z,7.60
2022-11-19T18:09:48.333Z,7.60
2022-11-19T18:12:18.254Z,7.70
2022-11-19T18:14:47.346Z,7.70
2022-11-19T18:17:15.790Z,7.70
2022-11-19T18:19:42.997Z,7.70
2022-11-19T18:22:18.212Z,7.70
2022-11-19T18:24:52.668Z,7.70
2022-11-19T18:27:19.695Z,7.70
2022-11-19T18:29:46.613Z,7.60
2022-11-19T18:32:16.939Z,7.60
2022-11-19T18:34:49.476Z,7.60
2022-11-19T18:37:19.986Z,7.50
2022-11-19T18:39:56.784Z,7.60
2022-11-19T18:42:26.761Z,7.60
2022-11-19T18:44:56.741Z,7.60
2022-11-19T18:47:28.472Z,7.60
2022-11-19T18:49:55.433Z,7.60
2022-11-19T18:52:24.707Z,7.60
2022-11-19T18:54:52.153Z,7.60
2022-11-19T18:57:21.437Z,7.60
2022-11-19T18:59:48.312Z,7.70
2022-11-19T19:02:15.443Z,7.60
2022-11-19T19:04:49.690Z,7.60
2022-11-19T19:07:20.792Z,7.60
2022-11-19T19:09:50.138Z,7.50
2022-11-19T19:12:19.627Z,7.50
2022-11-19T19:14:49.150Z,7.40
2022-11-19T19:17:16.481Z,7.40
2022-11-19T19:19:43.368Z,7.40
2022-11-19T19:22:10.421Z,7.40
2022-11-19T19:24:37.622Z,7.40
2022-11-19T19:27:10.628Z,7.50
2022-11-19T19:29:40.927Z,7.50
2022-11-19T19:32:12.465Z,7.50
2022-11-19T19:34:39.395Z,7.50
2022-11-19T19:37:06.980Z,7.50
2022-11-19T19:39:36.202Z,7.50
2022-11-19T19:42:04.442Z,7.50
2022-11-19T19:44:31.407Z,7.40
2022-11-19T19:46:59.436Z,7.40
2022-11-19T19:49:28.995Z,7.40
2022-11-19T19:51:56.168Z,7.40
2022-11-19T19:54:28.557Z,7.40
2022-11-19T19:56:57.983Z,7.40
2022-11-19T19:59:25.207Z,7.40
2022-11-19T20:01:52.266Z,7.40
2022-11-19T20:04:19.239Z,7.40
2022-11-19T20:06:51.345Z,7.40
2022-11-19T20:09:18.923Z,7.40
2022-11-19T20:11:46.223Z,7.40
2022-11-19T20:14:16.325Z,7.40
2022-11-19T20:16:46.954Z,7.50
2022-11-19T20:19:15.128Z,7.50
2022-11-19T20:21:47.131Z,7.50
2022-11-19T20:24:17.464Z,7.50
2022-11-19T20:26:46.986Z,7.50
2022-11-19T20:29:22.587Z,7.50
2022-11-19T20:31:51.675Z,7.40
2022-11-19T20:34:19.034Z,7.40
2022-11-19T20:36:48.520Z,7.40
2022-11-19T20:39:17.546Z,7.30
2022-11-19T20:42:05.601Z,7.20
2022-11-19T20:44:32.643Z,7.10
2022-11-19T20:47:04.685Z,7.00
2022-11-19T20:49:34.505Z,6.90
2022-11-19T20:52:02.342Z,6.90
2022-11-19T20:54:34.330Z,6.90
2022-11-19T20:57:03.569Z,6.90
2022-11-19T20:59:31.115Z,6.90
2022-11-19T21:01:58.190Z,6.90
2022-11-19T21:04:27.421Z,7.00
2022-11-19T21:06:54.411Z,7.00
2022-11-19T21:09:26.408Z,7.10
2022-11-19T21:11:54.177Z,7.10
2022-11-19T21:14:21.566Z,7.10
2022-11-19T21:16:48.685Z,7.20
2022-11-19T21:19:18.441Z,7.20
2022-11-19T21:21:45.975Z,7.20
2022-11-19T21:24:13.051Z,7.20
2022-11-19T21:26:40.180Z,7.20
2022-11-19T21:29:09.297Z,7.20
2022-11-19T21:31:42.281Z,7.20
2022-11-19T21:34:23.023Z,7.00
2022-11-19T21:36:50.573Z,6.80
2022-11-19T21:39:20.480Z,6.70
2022-11-19T21:41:48.018Z,6.60
2022-11-19T21:44:19.860Z,6.50
2022-11-19T21:46:48.303Z,6.40
2022-11-19T21:49:21.801Z,6.20
2022-11-19T21:51:49.164Z,6.10
2022-11-19T21:54:19.274Z,6.20
2022-11-19T21:56:51.529Z,6.30
2022-11-19T21:59:23.406Z,6.30
2022-11-19T22:01:54.932Z,6.40
2022-11-19T22:04:22.009Z,6.40
2022-11-19T22:06:51.497Z,6.40
2022-11-19T22:09:20.998Z,6.20
2022-11-19T22:11:48.035Z,6.20
2022-11-19T22:14:15.037Z,6.20
2022-11-19T22:16:41.961Z,6.10
2022-11-19T22:19:11.741Z,6.10
2022-11-19T22:21:39.162Z,6.10
2022-11-19T22:24:06.812Z,6.20
2022-11-19T22:26:38.312Z,6.20
2022-11-19T22:29:07.544Z,6.20
2022-11-19T22:31:37.006Z,6.20
2022-11-19T22:34:06.643Z,6.20
2022-11-19T22:36:33.722Z,6.20
2022-11-19T22:39:00.765Z,6.10
2022-11-19T22:41:30.267Z,6.10
2022-11-19T22:44:00.694Z,6.00
2022-11-19T22:46:28.154Z,5.90
2022-11-19T22:48:57.531Z,5.80
2022-11-19T22:51:25.929Z,5.70
2022-11-19T22:53:56.360Z,5.60
2022-11-19T22:56:28.916Z,5.50
2022-11-19T22:58:58.882Z,5.50
2022-11-19T23:01:34.012Z,5.60
2022-11-19T23:04:06.885Z,5.70
2022-11-19T23:06:35.315Z,5.60
2022-11-19T23:09:04.178Z,5.60
2022-11-19T23:11:49.686Z,5.50
2022-11-19T23:14:18.399Z,5.50
2022-11-19T23:16:45.574Z,5.50
2022-11-19T23:19:13.638Z,5.40
2022-11-19T23:21:42.686Z,5.40
2022-11-19T23:24:10.514Z,5.40
2022-11-19T23:26:42.405Z,5.30
2022-11-19T23:29:09.368Z,5.20
2022-11-19T23:31:44.580Z,5.10
2022-11-19T23:34:11.904Z,5.00
2022-11-19T23:36:41.625Z,4.90
2022-11-19T23:39:14.694Z,4.80
2022-11-19T23:41:44.204Z,4.80
2022-11-19T23:44:11.168Z,4.70
2022-11-19T23:46:40.463Z,4.60
2022-11-19T23:49:07.526Z,4.50
2022-11-19T23:51:40.274Z,4.40
2022-11-19T23:54:07.324Z,4.40
2022-11-19T23:56:36.159Z,4.30
2022-11-19T23:59:05.159Z,4.30
